Time;durP1;ratioP1;P1;durP2;ratioP2;P2;SDS_P1;SDS_P2;PMS_P1;PMS_P2;Temp;Humidity;BMP_temperature;BMP_pressure;BME280_temperature;BME280_humidity;BME280_pressure;Samples;Min_cycle;Max_cycle;Signal;HPM_P1;HPM_P2
2022/12/06 00:02:15;;;;;;;7.03;3.45;;;5.20;90.80;;;;;;4997299;28;20038;-66
2022/12/06 00:04:50;;;;;;;6.20;3.30;;;5.10;90.80;;;;;;5008050;28;20054;-66
2022/12/06 00:07:17;;;;;;;6.90;3.58;;;5.20;90.70;;;;;;5009162;28;20401;-65
2022/12/06 00:09:44;;;;;;;5.78;3.45;;;5.20;90.70;;;;;;5007439;28;20050;-65
2022/12/06 00:12:11;;;;;;;8.50;4.03;;;5.20;90.70;;;;;;5007053;28;20054;-65
2022/12/06 00:14:44;;;;;;;6.22;3.80;;;5.10;90.90;;;;;;5006861;28;20157;-65
2022/12/06 00:17:11;;;;;;;5.70;3.33;;;5.20;90.80;;;;;;5008027;28;20129;-64
2022/12/06 00:19:38;;;;;;;7.60;3.70;;;5.20;90.80;;;;;;5007339;28;20830;-65
2022/12/06 00:22:07;;;;;;;6.15;3.70;;;5.20;90.80;;;;;;5005952;28;20161;-66
2022/12/06 00:24:35;;;;;;;6.72;3.70;;;5.20;90.80;;;;;;5008465;28;20042;-65
2022/12/06 00:27:01;;;;;;;5.30;3.28;;;5.10;91.00;;;;;;5007333;28;20050;-65
2022/12/06 00:29:29;;;;;;;6.13;3.10;;;5.20;90.90;;;;;;5008014;28;20054;-65
2022/12/06 00:31:56;;;;;;;6.75;3.90;;;5.20;90.80;;;;;;5009048;28;20097;-65
2022/12/06 00:34:23;;;;;;;7.07;3.90;;;5.20;90.90;;;;;;5008753;28;20054;-65
2022/12/06 00:36:50;;;;;;;7.68;3.45;;;5.20;90.80;;;;;;5009559;28;20073;-65
2022/12/06 00:39:18;;;;;;;6.05;3.70;;;5.20;90.80;;;;;;5008831;28;20046;-65
2022/12/06 00:41:45;;;;;;;7.20;3.45;;;5.10;90.80;;;;;;5008874;28;20034;-64
2022/12/06 00:44:14;;;;;;;8.63;3.95;;;5.20;90.90;;;;;;5009156;28;20492;-66
2022/12/06 00:46:41;;;;;;;6.65;3.50;;;5.10;90.90;;;;;;5008531;28;20048;-64
2022/12/06 00:49:09;;;;;;;8.98;3.97;;;5.20;91.00;;;;;;5009383;28;20057;-65
2022/12/06 00:51:37;;;;;;;7.75;4.32;;;5.10;91.00;;;;;;5008500;28;20053;-64
2022/12/06 00:54:04;;;;;;;7.55;3.92;;;5.20;90.90;;;;;;5007993;28;20057;-65
2022/12/06 00:56:34;;;;;;;7.45;4.43;;;5.10;90.90;;;;;;5008586;28;20519;-65
2022/12/06 00:59:01;;;;;;;6.65;3.92;;;5.20;90.90;;;;;;5008449;28;20591;-65
2022/12/06 01:01:32;;;;;;;9.05;4.78;;;5.20;91.00;;;;;;5007888;28;20046;-65
2022/12/06 01:04:01;;;;;;;7.43;4.55;;;5.20;90.90;;;;;;5008106;28;20050;-66
2022/12/06 01:06:30;;;;;;;9.30;4.47;;;5.10;91.10;;;;;;5010553;28;20042;-66
2022/12/06 01:08:59;;;;;;;8.43;4.25;;;5.10;91.20;;;;;;5007116;28;20054;-66
2022/12/06 01:11:26;;;;;;;7.72;4.78;;;5.10;91.10;;;;;;5007215;28;20927;-66
2022/12/06 01:13:55;;;;;;;8.70;4.40;;;5.10;91.20;;;;;;5008580;28;20049;-65
2022/12/06 01:16:23;;;;;;;7.97;4.28;;;5.20;91.20;;;;;;5008673;28;20411;-66
2022/12/06 01:18:53;;;;;;;7.13;4.32;;;5.20;91.30;;;;;;5009230;28;20046;-65
2022/12/06 01:21:21;;;;;;;8.43;4.33;;;5.10;91.00;;;;;;5008438;28;20065;-65
2022/12/06 01:23:48;;;;;;;8.15;4.55;;;5.10;91.30;;;;;;5006700;28;20469;-65
2022/12/06 01:26:18;;;;;;;6.75;4.03;;;5.10;91.30;;;;;;5004243;28;20050;-65
2022/12/06 01:28:45;;;;;;;7.40;4.50;;;5.10;91.10;;;;;;5005856;28;20053;-66
2022/12/06 01:31:14;;;;;;;8.38;4.70;;;5.10;91.10;;;;;;5007290;28;20053;-66
2022/12/06 01:33:41;;;;;;;8.07;4.93;;;5.10;91.10;;;;;;5005562;28;20042;-64
2022/12/06 01:36:15;;;;;;;9.50;4.63;;;5.20;91.30;;;;;;5006068;28;20069;-65
2022/12/06 01:38:41;;;;;;;8.13;4.20;;;5.10;91.10;;;;;;5006201;28;20056;-64
2022/12/06 01:41:09;;;;;;;8.43;4.68;;;5.20;91.10;;;;;;5008162;28;20046;-65
2022/12/06 01:43:38;;;;;;;9.77;4.55;;;5.20;91.10;;;;;;5005575;28;20069;-65
2022/12/06 01:46:20;;;;;;;7.35;4.57;;;5.10;91.40;;;;;;5005261;28;20413;-64
2022/12/06 01:48:48;;;;;;;8.88;4.65;;;5.10;91.20;;;;;;4999523;28;20045;-64
2022/12/06 01:51:18;;;;;;;10.30;5.20;;;5.10;91.00;;;;;;5006825;28;20077;-64
2022/12/06 01:53:47;;;;;;;8.15;4.63;;;5.20;91.20;;;;;;5006439;28;20374;-65
2022/12/06 01:56:15;;;;;;;10.80;5.23;;;5.20;91.20;;;;;;4999327;28;20050;-60
2022/12/06 01:58:45;;;;;;;9.00;4.82;;;5.20;91.30;;;;;;5004188;28;20485;-59
2022/12/06 02:01:12;;;;;;;7.88;4.47;;;5.20;91.10;;;;;;5001529;28;20038;-61
2022/12/06 02:03:42;;;;;;;6.78;3.92;;;5.20;91.20;;;;;;5006165;28;20082;-61
2022/12/06 02:06:09;;;;;;;8.18;4.43;;;5.20;91.30;;;;;;5009038;28;20049;-62
2022/12/06 02:08:37;;;;;;;7.25;3.95;;;5.20;91.30;;;;;;5008050;28;20406;-60
2022/12/06 02:11:05;;;;;;;8.65;4.75;;;5.20;91.20;;;;;;5004946;28;20049;-60
2022/12/06 02:13:35;;;;;;;6.85;3.85;;;5.20;91.30;;;;;;5005281;28;20054;-61
2022/12/06 02:16:13;;;;;;;6.03;3.58;;;5.20;91.10;;;;;;5007435;28;20061;-60
2022/12/06 02:18:49;;;;;;;6.95;3.90;;;5.20;91.10;;;;;;5008789;28;20050;-62
2022/12/06 02:21:27;;;;;;;6.40;3.58;;;5.20;90.90;;;;;;5013129;28;20603;-59
2022/12/06 02:24:35;;;;;;;6.47;3.22;;;5.20;91.00;;;;;;5009243;28;20054;-62
2022/12/06 02:27:18;;;;;;;7.22;3.15;;;5.10;90.90;;;;;;5010058;28;20045;-60
2022/12/06 02:30:01;;;;;;;4.60;2.20;;;5.10;90.80;;;;;;5011905;28;20048;-61
2022/12/06 02:32:35;;;;;;;5.18;2.72;;;5.10;90.80;;;;;;5010905;28;20042;-61
2022/12/06 02:35:10;;;;;;;5.72;2.70;;;5.20;90.80;;;;;;5011595;28;20497;-61
2022/12/06 02:37:44;;;;;;;5.20;2.40;;;5.10;90.60;;;;;;5005531;28;20040;-60
2022/12/06 02:40:16;;;;;;;4.28;2.15;;;5.10;90.70;;;;;;5010701;28;20042;-61
2022/12/06 02:42:49;;;;;;;3.75;2.00;;;5.10;90.50;;;;;;5010258;28;20041;-61
2022/12/06 02:45:21;;;;;;;3.05;1.83;;;5.10;90.40;;;;;;5009507;28;20045;-59
2022/12/06 02:47:52;;;;;;;3.25;1.75;;;5.10;90.30;;;;;;5011905;28;20062;-61
2022/12/06 02:50:24;;;;;;;3.38;1.70;;;5.10;90.20;;;;;;5010365;28;20054;-60
2022/12/06 02:52:54;;;;;;;3.80;1.80;;;5.10;90.20;;;;;;5007208;28;20049;-60
2022/12/06 02:55:23;;;;;;;;;;;5.10;90.10;;;;;;5011056;28;20077;-60
2022/12/06 02:57:51;;;;;;;3.05;1.55;;;5.10;90.00;;;;;;5012528;28;19947;-60
2022/12/06 03:00:34;;;;;;;3.47;1.75;;;5.00;89.90;;;;;;5010022;28;20054;-60
2022/12/06 03:03:23;;;;;;;3.78;1.65;;;5.00;89.90;;;;;;5010459;28;20136;-61
2022/12/06 03:06:09;;;;;;;2.60;1.60;;;4.90;89.90;;;;;;5011082;28;20409;-60
2022/12/06 03:08:42;;;;;;;3.95;1.70;;;5.00;89.90;;;;;;5008040;28;20050;-60
2022/12/06 03:11:10;;;;;;;2.90;1.40;;;5.00;89.50;;;;;;5009378;28;20046;-62
2022/12/06 03:13:46;;;;;;;2.35;1.40;;;4.90;89.70;;;;;;5008490;28;20049;-60
2022/12/06 03:16:23;;;;;;;2.53;1.40;;;4.90;89.70;;;;;;5008729;28;20046;-62
2022/12/06 03:18:59;;;;;;;2.78;1.30;;;4.90;89.70;;;;;;5005800;28;20077;-62
2022/12/06 03:21:31;;;;;;;2.80;1.60;;;4.90;89.80;;;;;;5007647;28;20052;-61
2022/12/06 03:23:58;;;;;;;3.80;1.65;;;4.90;89.90;;;;;;5002605;28;20080;-60
2022/12/06 03:26:32;;;;;;;3.63;1.25;;;4.80;90.00;;;;;;5006818;28;20598;-61
2022/12/06 03:29:01;;;;;;;2.55;1.27;;;4.80;90.00;;;;;;5008837;28;20057;-61
2022/12/06 03:31:33;;;;;;;2.95;1.38;;;4.80;90.10;;;;;;5007947;28;20054;-60
2022/12/06 03:34:10;;;;;;;2.65;1.20;;;4.80;89.90;;;;;;5007482;28;20042;-60
2022/12/06 03:36:38;;;;;;;2.03;1.20;;;4.80;89.80;;;;;;5008460;28;20081;-60
2022/12/06 03:39:08;;;;;;;3.30;1.48;;;4.90;89.90;;;;;;5008789;28;20481;-60
2022/12/06 03:41:40;;;;;;;1.98;1.10;;;4.80;89.30;;;;;;5006856;28;20144;-61
2022/12/06 03:44:07;;;;;;;2.58;1.50;;;4.80;89.20;;;;;;5006669;28;20177;-61
2022/12/06 03:46:37;;;;;;;3.85;1.38;;;4.80;89.20;;;;;;5010185;28;20045;-62
2022/12/06 03:49:10;;;;;;;3.65;1.30;;;4.70;89.20;;;;;;5003684;28;20505;-61
2022/12/06 03:51:39;;;;;;;2.88;1.42;;;4.70;89.10;;;;;;4990266;28;20493;-61
2022/12/06 03:54:08;;;;;;;3.17;1.55;;;4.70;89.30;;;;;;4994867;28;20048;-60
2022/12/06 03:56:36;;;;;;;2.60;1.60;;;4.70;89.30;;;;;;5004428;28;20121;-61
2022/12/06 03:59:04;;;;;;;1.92;1.17;;;4.70;89.60;;;;;;5003353;28;20938;-59
2022/12/06 04:01:30;;;;;;;2.55;1.35;;;4.70;89.60;;;;;;4995456;28;20045;-62
2022/12/06 04:03:57;;;;;;;2.78;1.42;;;4.70;89.50;;;;;;5005697;28;20052;-61
2022/12/06 04:06:26;;;;;;;2.80;1.40;;;4.60;89.70;;;;;;4996622;28;20046;-62
2022/12/06 04:09:50;;;;;;;2.00;1.17;;;4.60;89.90;;;;;;5006409;28;20050;-60
2022/12/06 04:11:40;;;;;;;2.33;1.30;;;4.70;89.70;;;;;;4996823;28;20046;-61
2022/12/06 04:14:07;;;;;;;2.78;1.40;;;4.70;89.60;;;;;;4975484;28;20055;-61
2022/12/06 04:19:18;;;;;;;2.85;1.58;;;4.70;89.60;;;;;;4976364;28;20046;-61
2022/12/06 04:24:31;;;;;;;2.78;1.30;;;4.70;89.40;;;;;;4971916;28;20050;-59
2022/12/06 04:28:40;;;;;;;2.53;1.40;;;4.70;89.30;;;;;;4975726;28;20053;-61
2022/12/06 04:40:53;;;;;;;3.63;1.95;;;4.60;89.00;;;;;;4978195;28;20046;-61
2022/12/06 04:46:05;;;;;;;3.92;2.03;;;4.60;88.70;;;;;;4972800;28;20077;-61
2022/12/06 04:48:32;;;;;;;4.10;2.22;;;4.50;89.00;;;;;;4975244;28;20054;-60
2022/12/06 04:50:59;;;;;;;4.20;2.10;;;4.60;88.60;;;;;;4976069;28;20049;-63
2022/12/06 04:53:28;;;;;;;6.23;2.47;;;4.60;88.60;;;;;;4968552;28;20076;-61
2022/12/06 04:55:55;;;;;;;4.78;2.20;;;4.50;88.70;;;;;;4974676;28;20091;-60
2022/12/06 04:58:22;;;;;;;4.47;2.17;;;4.50;88.80;;;;;;4978815;28;20047;-61
2022/12/06 05:00:50;;;;;;;4.00;1.95;;;4.50;88.90;;;;;;4970404;28;20065;-59
2022/12/06 05:03:17;;;;;;;3.17;1.90;;;4.50;88.90;;;;;;4973477;28;20069;-59
2022/12/06 05:05:44;;;;;;;4.50;2.30;;;4.50;89.00;;;;;;4973209;28;20051;-59
2022/12/06 05:08:11;;;;;;;4.45;2.50;;;4.50;89.10;;;;;;4974937;28;20047;-58
2022/12/06 05:10:41;;;;;;;4.30;2.22;;;4.50;89.10;;;;;;4974937;28;20061;-59
2022/12/06 05:13:08;;;;;;;3.90;2.22;;;4.50;89.00;;;;;;4993067;28;20056;-59
2022/12/06 05:15:37;;;;;;;5.13;2.60;;;4.50;89.00;;;;;;4996759;28;20626;-60
2022/12/06 05:18:04;;;;;;;5.13;2.58;;;4.50;89.00;;;;;;5001881;28;20108;-59
2022/12/06 05:20:31;;;;;;;4.15;2.35;;;4.50;88.80;;;;;;4995009;28;20042;-59
2022/12/06 05:22:58;;;;;;;4.15;2.50;;;4.50;88.70;;;;;;5000735;28;20497;-60
2022/12/06 05:25:25;;;;;;;4.88;2.70;;;4.40;88.80;;;;;;4996000;28;20081;-59
2022/12/06 05:27:53;;;;;;;6.57;2.78;;;4.40;88.70;;;;;;4992875;28;20048;-60
2022/12/06 05:30:20;;;;;;;4.85;2.30;;;4.40;88.70;;;;;;4997166;28;20038;-58
2022/12/06 05:32:47;;;;;;;5.15;2.83;;;4.40;88.40;;;;;;5004211;28;20501;-57
2022/12/06 05:35:14;;;;;;;5.50;3.00;;;4.40;88.60;;;;;;5007234;28;20463;-63
2022/12/06 05:37:41;;;;;;;6.13;2.90;;;4.40;88.70;;;;;;4996282;28;20046;-62
2022/12/06 05:40:09;;;;;;;5.65;3.30;;;4.40;88.50;;;;;;5004279;28;20034;-63
2022/12/06 05:42:36;;;;;;;6.60;3.15;;;4.40;88.50;;;;;;4997902;28;20069;-63
2022/12/06 05:45:05;;;;;;;5.32;3.17;;;4.40;88.30;;;;;;4996459;28;20072;-64
2022/12/06 05:47:32;;;;;;;7.28;3.33;;;4.40;88.50;;;;;;5007129;28;20054;-65
2022/12/06 05:49:59;;;;;;;5.55;3.05;;;4.40;88.30;;;;;;5006823;28;20472;-63
2022/12/06 05:52:26;;;;;;;5.15;3.03;;;4.40;88.20;;;;;;5008009;28;20065;-63
2022/12/06 05:54:53;;;;;;;5.32;3.00;;;4.40;88.30;;;;;;5010821;28;20060;-63
2022/12/06 05:57:20;;;;;;;5.70;3.03;;;4.40;88.30;;;;;;5007194;28;20050;-63
2022/12/06 05:59:47;;;;;;;5.65;3.00;;;4.40;88.50;;;;;;5004019;28;20049;-62
2022/12/06 06:02:15;;;;;;;6.75;3.65;;;4.40;88.40;;;;;;5004318;28;20420;-58
2022/12/06 06:04:44;;;;;;;6.13;3.45;;;4.40;88.30;;;;;;4997725;28;20554;-58
2022/12/06 06:07:11;;;;;;;6.18;3.47;;;4.50;88.20;;;;;;5002507;28;20057;-59
2022/12/06 06:09:37;;;;;;;5.50;3.20;;;4.40;88.20;;;;;;5003445;28;20071;-59
2022/12/06 06:12:05;;;;;;;5.18;3.20;;;4.40;88.10;;;;;;5002615;28;20048;-59
2022/12/06 06:14:32;;;;;;;7.53;3.38;;;4.40;88.20;;;;;;4975913;28;20057;-60
2022/12/06 06:16:59;;;;;;;6.10;3.25;;;4.40;88.20;;;;;;4986312;28;20054;-59
2022/12/06 06:19:27;;;;;;;5.13;2.78;;;4.40;88.20;;;;;;4980992;28;20118;-60
2022/12/06 06:21:54;;;;;;;6.97;3.47;;;4.40;88.10;;;;;;4983182;28;20711;-58
2022/12/06 06:24:22;;;;;;;5.32;2.70;;;4.40;88.30;;;;;;4987134;28;20061;-60
2022/12/06 06:26:49;;;;;;;7.18;2.92;;;4.40;88.50;;;;;;4979744;28;20131;-60
2022/12/06 06:29:16;;;;;;;5.95;3.13;;;4.30;88.60;;;;;;4989032;28;20548;-60
2022/12/06 06:31:43;;;;;;;4.90;2.83;;;4.30;88.60;;;;;;4989501;28;20043;-59
2022/12/06 06:34:10;;;;;;;5.35;3.00;;;4.30;88.80;;;;;;4989321;28;20046;-59
2022/12/06 06:36:38;;;;;;;4.82;2.65;;;4.40;88.70;;;;;;4989498;28;20051;-59
2022/12/06 06:39:05;;;;;;;4.75;2.80;;;4.30;88.70;;;;;;4988474;28;20050;-59
2022/12/06 06:41:32;;;;;;;4.30;2.70;;;4.40;88.80;;;;;;4978283;28;20146;-58
2022/12/06 06:43:59;;;;;;;6.32;3.10;;;4.30;88.80;;;;;;4975989;28;20577;-60
2022/12/06 06:46:26;;;;;;;4.07;2.33;;;4.30;88.80;;;;;;4985181;28;20069;-60
2022/12/06 06:48:53;;;;;;;5.57;3.10;;;4.30;88.90;;;;;;4984244;28;20050;-59
2022/12/06 06:51:20;;;;;;;5.60;2.92;;;4.30;89.00;;;;;;4984403;28;20137;-60
2022/12/06 06:53:48;;;;;;;3.95;2.58;;;4.30;89.00;;;;;;4988905;28;20101;-61
2022/12/06 06:56:15;;;;;;;5.65;3.50;;;4.40;89.10;;;;;;4977886;28;20046;-59
2022/12/06 06:58:42;;;;;;;4.55;2.60;;;4.40;88.90;;;;;;4987120;28;20082;-58
2022/12/06 07:01:16;;;;;;;5.63;3.35;;;4.40;88.90;;;;;;4985872;28;20050;-59
2022/12/06 07:03:43;;;;;;;5.93;3.50;;;4.40;88.80;;;;;;4983488;28;20073;-59
2022/12/06 07:06:10;;;;;;;6.55;3.50;;;4.40;89.00;;;;;;4985164;28;20060;-59
2022/12/06 07:08:40;;;;;;;7.30;3.85;;;4.30;89.00;;;;;;4983034;28;20053;-59
2022/12/06 07:11:09;;;;;;;8.73;4.10;;;4.40;89.10;;;;;;4989454;28;20043;-59
2022/12/06 07:13:37;;;;;;;6.90;3.45;;;4.30;89.10;;;;;;4990088;28;20054;-59
2022/12/06 07:16:06;;;;;;;7.68;3.92;;;4.30;89.20;;;;;;4990326;28;20042;-59
2022/12/06 07:18:33;;;;;;;7.03;3.58;;;4.40;89.00;;;;;;4990074;28;20054;-60
2022/12/06 07:21:02;;;;;;;6.15;3.60;;;4.30;89.00;;;;;;4980492;28;20057;-59
2022/12/06 07:23:30;;;;;;;5.90;3.40;;;4.30;89.00;;;;;;4989525;28;20129;-59
2022/12/06 07:26:01;;;;;;;6.53;3.22;;;4.30;89.20;;;;;;4989415;28;20038;-59
2022/12/06 07:28:30;;;;;;;6.53;3.45;;;4.30;89.20;;;;;;4990204;28;20042;-59
2022/12/06 07:30:57;;;;;;;6.65;3.40;;;4.30;89.10;;;;;;4991094;28;20129;-59
2022/12/06 07:33:24;;;;;;;5.57;3.05;;;4.30;89.30;;;;;;4987667;28;20047;-60
2022/12/06 07:35:53;;;;;;;7.10;3.45;;;4.30;89.40;;;;;;4990564;28;20084;-58
2022/12/06 07:38:20;;;;;;;6.65;3.88;;;4.30;89.30;;;;;;4983892;28;20638;-59
2022/12/06 07:40:47;;;;;;;6.53;3.70;;;4.30;89.40;;;;;;4988532;28;20046;-59
2022/12/06 07:45:59;;;;;;;6.72;3.95;;;4.30;89.30;;;;;;4981677;28;20170;-59
2022/12/06 07:48:26;;;;;;;8.50;3.95;;;4.30;89.30;;;;;;4983396;28;20117;-59
2022/12/06 07:50:53;;;;;;;8.48;3.80;;;4.30;89.40;;;;;;4982579;28;20054;-59
2022/12/06 07:53:20;;;;;;;6.90;3.72;;;4.30;89.50;;;;;;4987730;28;20054;-58
2022/12/06 07:55:47;;;;;;;6.45;3.65;;;4.30;89.40;;;;;;4982541;28;20046;-62
2022/12/06 07:58:14;;;;;;;7.53;3.83;;;4.30;89.30;;;;;;4987245;28;20057;-59
2022/12/06 08:00:42;;;;;;;5.82;3.28;;;4.30;89.40;;;;;;4985064;28;20555;-59
2022/12/06 08:03:11;;;;;;;7.03;3.53;;;4.30;89.40;;;;;;4981183;28;20046;-61
2022/12/06 08:05:38;;;;;;;6.05;3.30;;;4.30;89.50;;;;;;4982264;28;20054;-58
2022/12/06 08:08:05;;;;;;;5.25;3.30;;;4.30;89.50;;;;;;4985220;28;20062;-60
2022/12/06 08:10:33;;;;;;;5.10;2.97;;;4.30;89.40;;;;;;4977873;28;20062;-58
2022/12/06 08:13:02;;;;;;;7.07;4.25;;;4.30;89.40;;;;;;4983526;28;20062;-60
2022/12/06 08:15:29;;;;;;;6.03;3.17;;;4.30;89.50;;;;;;4979667;28;20042;-59
2022/12/06 08:17:57;;;;;;;5.60;3.42;;;4.30;89.60;;;;;;4980120;28;20152;-58
2022/12/06 08:20:25;;;;;;;7.10;3.60;;;4.30;89.70;;;;;;4982317;28;20046;-59
2022/12/06 08:22:52;;;;;;;5.80;3.40;;;4.30;89.60;;;;;;4986097;28;20753;-59
2022/12/06 08:25:19;;;;;;;5.25;3.15;;;4.30;89.60;;;;;;4983108;28;20061;-59
2022/12/06 08:27:46;;;;;;;5.65;3.17;;;4.20;89.70;;;;;;4986994;28;20050;-59
2022/12/06 08:30:13;;;;;;;6.57;3.63;;;4.20;89.60;;;;;;4977134;28;20081;-59
2022/12/06 08:32:40;;;;;;;5.35;3.33;;;4.20;89.60;;;;;;4987045;28;20051;-59
2022/12/06 08:35:07;;;;;;;5.53;3.20;;;4.30;89.60;;;;;;4984992;28;20038;-61
2022/12/06 08:37:36;;;;;;;37.55;16.63;;;4.30;89.50;;;;;;4982821;28;20074;-59
2022/12/06 08:40:03;;;;;;;48.70;22.17;;;4.40;89.50;;;;;;4986996;28;20050;-59
2022/12/06 08:42:30;;;;;;;39.75;17.67;;;4.30;89.40;;;;;;4978596;28;20046;-58
2022/12/06 08:44:57;;;;;;;22.90;11.27;;;4.30;89.50;;;;;;4980667;28;20055;-59
2022/12/06 08:47:24;;;;;;;20.05;9.93;;;4.30;89.60;;;;;;4978962;28;20066;-59
2022/12/06 08:49:50;;;;;;;18.60;9.15;;;4.30;89.60;;;;;;4982656;28;20507;-58
2022/12/06 08:52:18;;;;;;;13.85;6.88;;;4.30;89.50;;;;;;4987317;28;20053;-59
2022/12/06 08:54:46;;;;;;;12.82;6.40;;;4.40;89.60;;;;;;4980677;28;20953;-59
2022/12/06 08:57:13;;;;;;;10.15;5.35;;;4.40;89.70;;;;;;4982877;28;20062;-59
2022/12/06 08:59:40;;;;;;;7.30;4.18;;;4.40;89.60;;;;;;4986913;28;20070;-58
2022/12/06 09:02:09;;;;;;;7.55;3.78;;;4.40;89.60;;;;;;4980487;28;20181;-60
2022/12/06 09:04:36;;;;;;;7.07;3.70;;;4.40;89.70;;;;;;4987706;28;20117;-59
2022/12/06 09:07:03;;;;;;;7.47;3.20;;;4.40;89.70;;;;;;4982166;28;20145;-60
2022/12/06 09:09:30;;;;;;;5.82;3.20;;;4.40;89.70;;;;;;4982542;28;20073;-59
2022/12/06 09:11:59;;;;;;;5.53;3.20;;;4.40;89.60;;;;;;4984883;28;20497;-61
2022/12/06 09:14:26;;;;;;;6.07;3.42;;;4.40;89.60;;;;;;4984835;28;20046;-61
2022/12/06 09:16:54;;;;;;;6.20;3.50;;;4.40;89.70;;;;;;4981395;28;20082;-59
2022/12/06 09:19:21;;;;;;;6.97;4.10;;;4.40;89.60;;;;;;4979545;28;20046;-60
2022/12/06 09:21:48;;;;;;;9.18;4.63;;;4.50;89.70;;;;;;4981007;28;20387;-60
2022/12/06 09:24:16;;;;;;;8.63;4.47;;;4.50;89.70;;;;;;4984416;28;20050;-59
2022/12/06 09:26:43;;;;;;;9.27;4.47;;;4.50;89.60;;;;;;4983847;28;20145;-62
2022/12/06 09:29:12;;;;;;;8.27;4.57;;;4.50;89.60;;;;;;4991189;28;20502;-59
2022/12/06 09:31:39;;;;;;;7.50;4.50;;;4.50;89.40;;;;;;4981751;28;20133;-60
2022/12/06 09:34:07;;;;;;;7.00;4.22;;;4.50;89.30;;;;;;4987375;28;20050;-62
2022/12/06 09:36:36;;;;;;;7.50;4.43;;;4.50;89.30;;;;;;4988215;28;20086;-59
2022/12/06 09:39:05;;;;;;;8.65;5.35;;;4.60;89.20;;;;;;4982308;28;20178;-60
2022/12/06 09:42:06;;;;;;;7.50;4.90;;;4.60;89.30;;;;;;4978393;28;20133;-60
2022/12/06 09:44:58;;;;;;;7.45;4.50;;;4.50;89.30;;;;;;4986001;28;20137;-59
2022/12/06 09:47:38;;;;;;;5.20;3.65;;;4.60;89.30;;;;;;4982498;28;20527;-59
2022/12/06 09:50:12;;;;;;;6.13;3.78;;;4.60;89.20;;;;;;4982798;28;20047;-60
2022/12/06 09:52:57;;;;;;;7.38;4.00;;;4.60;89.20;;;;;;4970236;28;20046;-60
2022/12/06 09:55:40;;;;;;;7.40;4.05;;;4.60;89.00;;;;;;4982990;28;20081;-60
2022/12/06 09:58:18;;;;;;;7.82;4.43;;;4.60;89.10;;;;;;4980504;28;20500;-60
2022/12/06 10:00:49;;;;;;;9.20;5.47;;;4.70;89.00;;;;;;4975005;28;20043;-60
2022/12/06 10:03:36;;;;;;;;;;;4.60;88.90;;;;;;4979118;28;20050;-59
2022/12/06 10:06:08;;;;;;;16.75;7.95;;;4.70;88.80;;;;;;4976671;28;19936;-60
2022/12/06 10:08:50;;;;;;;12.95;7.70;;;4.70;88.90;;;;;;4981250;28;20519;-62
2022/12/06 10:11:31;;;;;;;11.98;7.63;;;4.70;88.90;;;;;;4976365;28;20054;-59
2022/12/06 10:14:09;;;;;;;13.88;7.07;;;4.70;88.90;;;;;;4998302;28;20523;-60
2022/12/06 10:16:48;;;;;;;10.20;6.15;;;4.70;88.70;;;;;;5000195;28;20038;-59
2022/12/06 10:19:31;;;;;;;12.10;7.00;;;4.70;88.70;;;;;;5004765;28;20129;-60
2022/12/06 10:22:10;;;;;;;11.15;6.65;;;4.80;88.50;;;;;;5005221;28;20050;-60
2022/12/06 10:24:58;;;;;;;13.90;7.43;;;4.80;88.40;;;;;;5002437;28;20053;-60
2022/12/06 10:27:37;;;;;;;12.65;6.57;;;4.90;88.10;;;;;;5003420;28;20053;-61
2022/12/06 10:30:09;;;;;;;8.40;5.00;;;4.90;88.00;;;;;;5003467;28;20089;-60
2022/12/06 10:32:51;;;;;;;10.38;5.13;;;4.90;88.00;;;;;;5004448;28;20094;-61
2022/12/06 10:35:28;;;;;;;9.68;6.20;;;4.90;87.90;;;;;;5001065;28;20496;-59
2022/12/06 10:38:05;;;;;;;21.00;10.05;;;4.90;87.70;;;;;;5007070;28;20060;-58
2022/12/06 10:40:42;;;;;;;26.85;13.43;;;5.00;87.60;;;;;;5004941;28;20037;-59
2022/12/06 10:43:17;;;;;;;19.85;10.68;;;5.00;87.70;;;;;;5003172;28;20045;-60
2022/12/06 10:48:41;;;;;;;10.23;5.53;;;4.90;87.40;;;;;;5008787;28;20053;-60
2022/12/06 10:51:12;;;;;;;9.18;4.85;;;4.90;87.40;;;;;;5000683;28;20176;-59
2022/12/06 10:53:45;;;;;;;8.25;4.90;;;4.90;87.30;;;;;;4999537;28;20128;-62
2022/12/06 10:56:18;;;;;;;8.65;5.55;;;4.90;87.30;;;;;;5004839;28;20456;-61
2022/12/06 10:58:51;;;;;;;8.90;5.65;;;4.90;87.40;;;;;;5004543;28;20048;-61
2022/12/06 11:01:24;;;;;;;10.38;5.18;;;4.90;87.30;;;;;;4999573;28;20041;-59
2022/12/06 11:04:00;;;;;;;7.93;4.72;;;5.00;87.40;;;;;;5003280;28;20116;-59
2022/12/06 11:06:32;;;;;;;9.05;4.43;;;5.00;87.30;;;;;;4999309;28;20512;-61
2022/12/06 11:09:08;;;;;;;8.27;3.92;;;5.00;87.50;;;;;;5009350;28;20046;-60
2022/12/06 11:11:39;;;;;;;5.78;3.15;;;4.90;87.20;;;;;;5004742;28;20057;-61
2022/12/06 11:14:15;;;;;;;6.07;3.20;;;5.00;87.30;;;;;;5002546;28;20096;-61
2022/12/06 11:16:51;;;;;;;7.90;3.65;;;5.00;87.20;;;;;;5003863;28;20042;-60
2022/12/06 11:19:27;;;;;;;6.95;3.83;;;5.00;87.30;;;;;;5003381;28;20057;-60
2022/12/06 11:21:58;;;;;;;5.93;3.80;;;5.10;87.30;;;;;;5006015;28;20050;-65
2022/12/06 11:24:31;;;;;;;7.22;4.00;;;5.00;87.20;;;;;;5006227;28;20050;-60
2022/12/06 11:27:04;;;;;;;6.70;4.47;;;5.00;87.40;;;;;;5005951;28;20042;-60
2022/12/06 11:29:31;;;;;;;6.80;3.72;;;5.00;87.40;;;;;;5000967;28;20116;-59
2022/12/06 11:32:01;;;;;;;6.20;3.60;;;5.00;87.60;;;;;;5004720;28;20515;-61
2022/12/06 11:34:36;;;;;;;6.82;4.30;;;5.10;87.20;;;;;;4999777;28;20052;-60
2022/12/06 11:37:05;;;;;;;5.72;3.40;;;5.10;87.20;;;;;;5003010;28;20050;-60
2022/12/06 11:39:34;;;;;;;6.35;3.72;;;5.10;87.10;;;;;;5003448;28;20108;-61
2022/12/06 11:42:04;;;;;;;6.47;3.58;;;5.00;87.20;;;;;;5005332;28;20133;-60
2022/12/06 11:44:39;;;;;;;6.47;3.35;;;5.00;87.30;;;;;;5006979;28;20046;-60
2022/12/06 11:47:07;;;;;;;6.55;3.40;;;5.00;87.20;;;;;;5001359;28;20127;-60
2022/12/06 11:49:38;;;;;;;6.20;3.35;;;5.10;87.40;;;;;;5003674;28;20133;-59
2022/12/06 11:52:10;;;;;;;4.93;3.08;;;5.10;87.20;;;;;;5007876;28;20094;-60
2022/12/06 11:54:42;;;;;;;6.13;3.03;;;5.10;87.30;;;;;;5006680;28;20050;-60
2022/12/06 11:57:16;;;;;;;5.72;2.60;;;5.10;87.10;;;;;;5001374;28;20122;-59
2022/12/06 12:00:08;;;;;;;5.50;3.30;;;5.10;86.70;;;;;;5003076;28;20039;-60
2022/12/06 12:02:40;;;;;;;6.22;3.40;;;5.10;87.00;;;;;;4998740;28;20105;-59
2022/12/06 12:05:18;;;;;;;6.07;3.50;;;5.10;87.10;;;;;;5002185;28;20052;-60
2022/12/06 12:07:48;;;;;;;5.53;3.13;;;5.10;87.20;;;;;;5002194;28;20062;-59
2022/12/06 12:10:34;;;;;;;7.30;3.25;;;5.10;87.40;;;;;;5002488;28;20042;-60
2022/12/06 12:16:12;;;;;;;5.78;2.75;;;5.10;87.40;;;;;;4994966;28;20563;-59
2022/12/06 12:18:43;;;;;;;5.78;3.20;;;5.10;87.40;;;;;;5003983;28;20579;-60
2022/12/06 12:21:11;;;;;;;5.90;2.97;;;5.10;87.40;;;;;;5000508;28;20046;-60
2022/12/06 12:23:43;;;;;;;5.25;3.00;;;5.10;87.40;;;;;;5003485;28;20883;-60
2022/12/06 12:26:13;;;;;;;6.25;3.28;;;5.10;87.50;;;;;;5006837;28;20780;-59
2022/12/06 12:28:42;;;;;;;5.93;3.22;;;5.10;87.60;;;;;;5006028;28;20201;-62
2022/12/06 12:31:11;;;;;;;5.28;2.92;;;5.00;87.50;;;;;;4997990;28;20568;-60
2022/12/06 12:33:37;;;;;;;7.07;3.33;;;5.10;87.60;;;;;;5007746;28;20050;-61
2022/12/06 12:36:19;;;;;;;5.88;3.13;;;5.00;87.50;;;;;;5000913;28;20505;-61
2022/12/06 12:38:54;;;;;;;6.28;3.05;;;5.10;87.70;;;;;;5002257;28;20129;-60
2022/12/06 12:41:25;;;;;;;5.88;3.17;;;5.00;87.80;;;;;;4994760;28;20437;-60
2022/12/06 12:43:59;;;;;;;4.75;2.83;;;5.00;87.80;;;;;;4988993;28;20128;-62
2022/12/06 12:46:27;;;;;;;5.32;3.05;;;5.00;87.80;;;;;;5000163;28;20041;-62
2022/12/06 12:49:12;;;;;;;5.68;3.13;;;5.00;87.90;;;;;;5005220;28;20124;-61
2022/12/06 12:51:41;;;;;;;5.82;3.20;;;5.00;87.80;;;;;;5000842;28;20038;-62
2022/12/06 12:54:21;;;;;;;6.20;2.90;;;5.00;87.90;;;;;;5004876;28;20042;-61
2022/12/06 12:56:49;;;;;;;5.35;2.88;;;5.00;87.90;;;;;;5014537;28;20057;-62
2022/12/06 12:59:18;;;;;;;5.47;3.25;;;5.00;88.00;;;;;;5006383;28;20131;-61
2022/12/06 13:01:49;;;;;;;6.18;3.20;;;4.90;88.10;;;;;;5004609;28;20584;-63
2022/12/06 13:04:30;;;;;;;5.45;3.10;;;5.00;88.10;;;;;;5005020;28;20128;-60
2022/12/06 13:07:03;;;;;;;6.93;3.42;;;5.00;88.10;;;;;;5001512;28;20057;-60
2022/12/06 13:09:36;;;;;;;4.68;2.97;;;5.10;88.20;;;;;;5005194;28;20065;-61
2022/12/06 13:12:06;;;;;;;5.65;3.10;;;5.00;88.10;;;;;;4995236;28;20069;-59
2022/12/06 13:14:35;;;;;;;6.50;3.42;;;5.00;88.40;;;;;;5001577;28;20042;-59
2022/12/06 13:17:07;;;;;;;5.72;3.28;;;5.10;88.30;;;;;;4999713;28;20046;-60
2022/12/06 13:19:37;;;;;;;6.82;3.00;;;5.10;88.40;;;;;;4996958;28;20124;-64
2022/12/06 13:22:13;;;;;;;10.13;4.68;;;5.00;88.40;;;;;;5004289;28;21641;-60
2022/12/06 13:24:44;;;;;;;11.60;5.38;;;5.00;88.40;;;;;;4997210;28;20042;-60
2022/12/06 13:27:17;;;;;;;10.30;4.60;;;5.10;88.30;;;;;;4997558;28;20263;-58
2022/12/06 13:29:49;;;;;;;7.13;3.67;;;5.00;88.40;;;;;;4994827;28;20042;-59
2022/12/06 13:32:20;;;;;;;7.93;3.60;;;5.00;88.40;;;;;;5000603;28;20064;-59
2022/12/06 13:34:50;;;;;;;7.78;3.90;;;5.10;88.30;;;;;;4993970;28;20457;-58
2022/12/06 13:37:33;;;;;;;6.43;3.22;;;5.10;88.20;;;;;;5003731;28;20085;-61
2022/12/06 13:40:00;;;;;;;7.18;3.90;;;5.00;88.30;;;;;;5002821;28;20042;-60
2022/12/06 13:42:45;;;;;;;6.88;4.13;;;5.00;88.30;;;;;;5003863;28;20053;-61